createdAt,value
2022-09-23T00:01:03.409Z,74.80
2022-09-23T00:04:46.780Z,75.80
2022-09-23T00:08:29.652Z,75.10
2022-09-23T00:12:11.381Z,75.20
2022-09-23T00:15:53.176Z,75.30
2022-09-23T00:19:35.231Z,75.50
2022-09-23T00:23:16.962Z,75.60
2022-09-23T00:27:00.068Z,75.60
2022-09-23T00:30:42.069Z,75.70
2022-09-23T00:34:23.862Z,75.90
2022-09-23T00:38:05.586Z,75.90
2022-09-23T00:41:47.379Z,75.90
2022-09-23T00:45:29.915Z,76.10
2022-09-23T00:49:20.518Z,76.10
2022-09-23T00:53:07.651Z,76.40
2022-09-23T00:56:49.542Z,76.50
2022-09-23T01:00:31.483Z,76.40
2022-09-23T01:04:14.739Z,76.40
2022-09-23T01:07:58.884Z,76.50
2022-09-23T01:11:45.424Z,76.60
2022-09-23T01:15:53.288Z,76.90
2022-09-23T01:20:13.834Z,77.90
2022-09-23T01:24:16.662Z,76.70
2022-09-23T01:28:08.367Z,77.30
2022-09-23T01:32:03.400Z,77.30
2022-09-23T01:36:08.639Z,77.40
2022-09-23T01:40:14.235Z,77.90
2022-09-23T01:44:14.508Z,77.50
2022-09-23T01:48:21.071Z,77.00
2022-09-23T01:52:19.467Z,78.00
2022-09-23T01:56:06.998Z,77.70
2022-09-23T01:59:55.800Z,77.30
2022-09-23T02:03:52.754Z,77.30
2022-09-23T02:07:46.157Z,77.70
2022-09-23T02:11:29.022Z,77.80
2022-09-23T02:15:15.637Z,77.40
2022-09-23T02:19:05.485Z,77.50
2022-09-23T02:23:06.168Z,77.60
2022-09-23T02:26:58.634Z,77.90
2022-09-23T02:30:49.738Z,78.00
2022-09-23T02:34:44.638Z,77.90
2022-09-23T02:38:33.693Z,78.00
2022-09-23T02:42:22.271Z,77.60
2022-09-23T02:46:04.942Z,77.80
2022-09-23T02:49:47.032Z,77.80
2022-09-23T02:53:33.415Z,77.90
2022-09-23T02:57:15.218Z,77.90
2022-09-23T03:01:19.030Z,77.90
2022-09-23T03:05:03.888Z,78.40
2022-09-23T03:08:57.602Z,77.90
2022-09-23T03:12:58.014Z,78.40
2022-09-23T03:17:09.573Z,78.20
2022-09-23T03:21:03.207Z,78.70
2022-09-23T03:24:49.664Z,78.30
2022-09-23T03:28:37.301Z,78.10
2022-09-23T03:32:23.054Z,78.20
2022-09-23T03:36:27.565Z,78.20
2022-09-23T03:40:21.105Z,78.20
2022-09-23T03:44:03.730Z,78.60
2022-09-23T03:47:46.305Z,78.20
2022-09-23T03:51:28.036Z,78.30
2022-09-23T03:55:11.038Z,78.40
2022-09-23T03:58:52.908Z,78.40
2022-09-23T04:02:34.795Z,78.40
2022-09-23T04:06:16.900Z,78.50
2022-09-23T04:09:58.981Z,78.50
2022-09-23T04:13:40.821Z,78.50
2022-09-23T04:17:22.659Z,78.50
2022-09-23T04:21:04.492Z,78.60
2022-09-23T04:24:46.241Z,78.60
2022-09-23T04:28:27.955Z,78.60
2022-09-23T04:32:10.191Z,78.70
2022-09-23T04:35:52.301Z,78.70
2022-09-23T04:39:33.985Z,78.70
2022-09-23T04:43:16.482Z,78.80
2022-09-23T04:46:58.509Z,78.80
2022-09-23T04:50:40.633Z,78.80
2022-09-23T04:54:22.324Z,78.80
2022-09-23T04:58:04.024Z,78.90
2022-09-23T05:01:45.853Z,78.80
2022-09-23T05:05:28.270Z,78.90
2022-09-23T05:09:15.452Z,78.90
2022-09-23T05:12:58.962Z,79.00
2022-09-23T05:16:40.909Z,78.90
2022-09-23T05:20:22.632Z,78.90
2022-09-23T05:24:04.838Z,78.80
2022-09-23T05:27:46.579Z,78.80
2022-09-23T05:31:30.210Z,78.70
2022-09-23T05:35:12.110Z,78.70
2022-09-23T05:38:56.517Z,78.70
2022-09-23T05:42:38.264Z,78.70
2022-09-23T05:46:25.529Z,78.70
2022-09-23T05:50:08.115Z,78.70
2022-09-23T05:53:52.565Z,78.70
2022-09-23T05:57:34.298Z,78.60
2022-09-23T06:01:18.402Z,78.60
2022-09-23T06:05:00.277Z,78.60
2022-09-23T06:08:42.637Z,78.60
2022-09-23T06:12:25.114Z,78.60
2022-09-23T06:16:09.053Z,78.70
2022-09-23T06:19:50.814Z,78.70
2022-09-23T06:23:33.476Z,78.60
2022-09-23T06:27:15.435Z,78.60
2022-09-23T06:30:58.454Z,78.60
2022-09-23T06:34:51.228Z,78.60
2022-09-23T06:38:34.264Z,78.50
2022-09-23T06:42:16.625Z,78.60
2022-09-23T06:46:01.169Z,78.50
2022-09-23T06:49:43.123Z,78.60
2022-09-23T06:53:25.564Z,78.50
2022-09-23T06:57:07.308Z,78.50
2022-09-23T07:00:49.118Z,78.50
2022-09-23T07:04:30.850Z,78.40
2022-09-23T07:08:12.518Z,78.40
2022-09-23T07:11:54.525Z,78.40
2022-09-23T07:15:36.473Z,78.40
2022-09-23T07:19:18.216Z,78.30
2022-09-23T07:22:59.980Z,78.40
2022-09-23T07:26:45.595Z,78.40
2022-09-23T07:30:27.566Z,78.30
2022-09-23T07:34:11.601Z,78.30
2022-09-23T07:37:53.669Z,78.10
2022-09-23T07:41:35.799Z,78.10
2022-09-23T07:45:18.226Z,78.00
2022-09-23T07:49:00.448Z,78.00
2022-09-23T07:52:42.842Z,78.00
2022-09-23T07:56:27.504Z,78.00
2022-09-23T08:00:10.129Z,78.00
2022-09-23T08:03:51.874Z,77.90
2022-09-23T08:07:36.666Z,77.90
2022-09-23T08:11:18.992Z,77.60
2022-09-23T08:15:00.856Z,77.50
2022-09-23T08:18:46.104Z,77.40
2022-09-23T08:22:27.833Z,77.20
2022-09-23T08:26:17.830Z,77.00
2022-09-23T08:30:01.357Z,76.80
2022-09-23T08:33:43.153Z,76.60
2022-09-23T08:37:24.884Z,76.40
2022-09-23T08:41:33.146Z,76.30
2022-09-23T08:45:25.616Z,76.10
2022-09-23T08:49:12.413Z,75.60
2022-09-23T08:53:01.815Z,75.80
2022-09-23T08:56:48.545Z,75.40
2022-09-23T09:01:03.356Z,75.30
2022-09-23T09:04:56.525Z,74.10
2022-09-23T09:08:39.490Z,74.70
2022-09-23T09:12:28.721Z,74.60
2022-09-23T09:16:13.443Z,74.30
2022-09-23T09:20:05.297Z,74.20
2022-09-23T09:23:58.461Z,73.20
2022-09-23T09:27:41.223Z,72.70
2022-09-23T09:31:44.523Z,73.50
2022-09-23T09:35:35.081Z,72.30
2022-09-23T09:39:17.255Z,73.10
2022-09-23T09:42:58.980Z,73.20
2022-09-23T09:46:52.570Z,72.90
2022-09-23T09:51:25.284Z,72.30
2022-09-23T09:55:12.802Z,71.50
2022-09-23T09:59:35.150Z,71.80
2022-09-23T10:03:48.911Z,70.50
2022-09-23T10:07:32.601Z,70.80
2022-09-23T10:11:17.106Z,71.50
2022-09-23T10:14:59.042Z,71.30
2022-09-23T10:18:46.569Z,71.10
2022-09-23T10:22:33.657Z,70.00
2022-09-23T10:26:18.513Z,70.10
2022-09-23T10:30:03.590Z,70.20
2022-09-23T10:33:50.759Z,70.20
2022-09-23T10:37:32.555Z,69.40
2022-09-23T10:42:00.707Z,69.80
2022-09-23T10:46:07.564Z,68.80
2022-09-23T10:50:01.286Z,69.10
2022-09-23T10:54:12.133Z,68.20
2022-09-23T10:58:31.257Z,66.60
2022-09-23T11:02:31.570Z,66.30
2022-09-23T11:06:50.209Z,65.90
2022-09-23T11:10:59.161Z,64.90
2022-09-23T11:15:00.113Z,66.40
2022-09-23T11:18:49.701Z,65.60
2022-09-23T11:22:53.139Z,67.20
2022-09-23T11:27:16.833Z,67.40
2022-09-23T11:31:22.340Z,67.00
2022-09-23T11:35:29.436Z,64.60
2022-09-23T11:39:28.990Z,64.00
2022-09-23T11:43:24.942Z,64.10
2022-09-23T11:47:13.976Z,64.00
2022-09-23T11:51:00.963Z,65.20
2022-09-23T11:55:04.892Z,64.40
2022-09-23T11:59:29.565Z,61.30
2022-09-23T12:03:18.491Z,62.00
2022-09-23T12:07:14.679Z,63.00
2022-09-23T12:11:24.042Z,59.80
2022-09-23T12:15:25.766Z,59.40
2022-09-23T12:19:28.534Z,58.40
2022-09-23T12:23:41.041Z,59.30
2022-09-23T12:27:45.993Z,58.00
2022-09-23T12:31:33.921Z,58.20
2022-09-23T12:35:35.707Z,60.20
2022-09-23T12:39:26.681Z,58.50
2022-09-23T12:43:30.207Z,58.60
2022-09-23T12:47:15.013Z,57.40
2022-09-23T12:51:07.471Z,58.90
2022-09-23T12:54:51.159Z,56.60
2022-09-23T12:58:58.127Z,58.30
2022-09-23T13:03:11.549Z,54.20
2022-09-23T13:07:07.578Z,54.30
2022-09-23T13:10:52.339Z,54.50
2022-09-23T13:14:36.080Z,57.00
2022-09-23T13:18:20.627Z,56.90
2022-09-23T13:22:09.089Z,55.90
2022-09-23T13:26:02.835Z,55.50
2022-09-23T13:29:50.089Z,55.90
2022-09-23T13:33:47.291Z,55.40
2022-09-23T13:37:48.263Z,54.00
2022-09-23T13:41:30.026Z,53.00
2022-09-23T13:45:18.165Z,55.20
2022-09-23T13:48:59.935Z,54.00
2022-09-23T13:52:41.716Z,54.90
2022-09-23T13:56:25.261Z,54.80
2022-09-23T14:00:25.324Z,54.80
2022-09-23T14:04:24.387Z,52.60
2022-09-23T14:08:08.239Z,51.60
2022-09-23T14:11:51.655Z,53.80
2022-09-23T14:15:37.272Z,53.70
2022-09-23T14:19:22.108Z,52.20
2022-09-23T14:23:10.851Z,51.70
2022-09-23T14:26:56.564Z,50.80
2022-09-23T14:30:38.638Z,51.60
2022-09-23T14:34:45.016Z,50.90
2022-09-23T14:38:47.296Z,47.70
2022-09-23T14:42:38.360Z,50.50
2022-09-23T14:46:21.701Z,50.10
2022-09-23T14:50:22.253Z,49.90
2022-09-23T14:54:26.597Z,49.60
2022-09-23T14:58:16.578Z,46.90
2022-09-23T15:01:58.587Z,48.10
2022-09-23T15:05:44.328Z,49.60
2022-09-23T15:09:28.809Z,49.50
2022-09-23T15:13:21.231Z,49.20
2022-09-23T15:17:06.745Z,46.30
2022-09-23T15:20:54.155Z,46.90
2022-09-23T15:24:47.478Z,44.30
2022-09-23T15:28:29.195Z,43.90
2022-09-23T15:32:10.943Z,44.80
2022-09-23T15:35:52.680Z,44.40
2022-09-23T15:39:36.375Z,43.90
2022-09-23T15:43:24.127Z,43.80
2022-09-23T15:47:05.961Z,43.10
2022-09-23T15:50:48.251Z,42.60
2022-09-23T15:54:30.362Z,41.70
2022-09-23T15:58:12.166Z,40.80
2022-09-23T16:01:55.810Z,40.90
2022-09-23T16:05:39.416Z,40.30
2022-09-23T16:09:21.123Z,40.20
2022-09-23T16:13:06.254Z,40.50
2022-09-23T16:16:48.155Z,40.50
2022-09-23T16:20:30.572Z,40.60
2022-09-23T16:24:17.839Z,40.60
2022-09-23T16:27:59.468Z,39.40
2022-09-23T16:31:41.451Z,37.30
2022-09-23T16:35:25.598Z,39.80
2022-09-23T16:39:11.037Z,38.90
2022-09-23T16:42:54.917Z,39.00
2022-09-23T16:46:36.852Z,38.60
2022-09-23T16:50:22.714Z,38.60
2022-09-23T16:54:10.275Z,38.30
2022-09-23T16:57:52.722Z,37.70
2022-09-23T17:01:53.362Z,39.20
2022-09-23T17:05:35.396Z,39.60
2022-09-23T17:09:26.225Z,40.00
2022-09-23T17:13:08.452Z,39.50
2022-09-23T17:16:50.416Z,40.70
2022-09-23T17:20:32.388Z,40.80
2022-09-23T17:24:14.119Z,41.10
2022-09-23T17:27:55.857Z,41.40
2022-09-23T17:31:39.126Z,41.60
2022-09-23T17:35:20.870Z,41.80
2022-09-23T17:39:02.798Z,42.00
2022-09-23T17:42:44.634Z,42.20
2022-09-23T17:46:28.856Z,42.30
2022-09-23T17:50:10.573Z,42.60
2022-09-23T17:53:52.287Z,42.70
2022-09-23T17:57:34.000Z,42.90
2022-09-23T18:01:22.372Z,43.10
2022-09-23T18:05:04.410Z,43.20
2022-09-23T18:08:48.357Z,43.40
2022-09-23T18:12:30.089Z,43.60
2022-09-23T18:16:11.905Z,43.90
2022-09-23T18:19:53.717Z,44.10
2022-09-23T18:23:37.262Z,44.30
2022-09-23T18:27:18.943Z,44.50
2022-09-23T18:31:00.702Z,44.60
2022-09-23T18:34:42.423Z,44.80
2022-09-23T18:38:24.154Z,45.00
2022-09-23T18:42:06.254Z,45.20
2022-09-23T18:46:00.835Z,45.40
2022-09-23T18:50:01.108Z,45.90
2022-09-23T18:53:43.891Z,45.70
2022-09-23T18:57:25.691Z,46.00
2022-09-23T19:01:09.779Z,46.30
2022-09-23T19:04:52.707Z,46.60
2022-09-23T19:08:35.183Z,46.80
2022-09-23T19:12:17.059Z,47.10
2022-09-23T19:16:10.945Z,47.40
2022-09-23T19:19:53.038Z,47.90
2022-09-23T19:23:35.109Z,47.80
2022-09-23T19:27:16.839Z,48.10
2022-09-23T19:31:08.261Z,48.20
2022-09-23T19:34:50.034Z,48.30
2022-09-23T19:38:32.590Z,48.50
2022-09-23T19:42:14.367Z,48.70
2022-09-23T19:45:56.306Z,48.80
2022-09-23T19:49:38.261Z,49.00
2022-09-23T19:53:20.162Z,49.10
2022-09-23T19:57:01.943Z,49.20
2022-09-23T20:00:43.706Z,49.30
2022-09-23T20:04:26.166Z,49.30
2022-09-23T20:08:07.899Z,49.40
2022-09-23T20:11:49.692Z,49.60
2022-09-23T20:15:31.378Z,49.70
2022-09-23T20:19:14.018Z,49.80
2022-09-23T20:22:55.826Z,49.90
2022-09-23T20:26:56.459Z,50.00
2022-09-23T20:30:39.065Z,50.10
2022-09-23T20:34:21.580Z,50.10
2022-09-23T20:38:07.849Z,50.20
2022-09-23T20:41:51.178Z,50.30
2022-09-23T20:45:32.991Z,50.50
2022-09-23T20:49:15.233Z,50.60
2022-09-23T20:52:57.597Z,50.70
2022-09-23T20:56:39.472Z,50.90
2022-09-23T21:00:21.328Z,51.10
2022-09-23T21:04:05.937Z,51.30
2022-09-23T21:07:47.845Z,51.40
2022-09-23T21:11:29.935Z,51.60
2022-09-23T21:15:11.932Z,51.80
2022-09-23T21:18:53.750Z,51.90
2022-09-23T21:22:36.089Z,51.90
2022-09-23T21:26:25.227Z,51.90
2022-09-23T21:30:07.526Z,52.50
2022-09-23T21:33:55.771Z,52.00
2022-09-23T21:37:37.575Z,52.30
2022-09-23T21:41:19.996Z,52.20
2022-09-23T21:45:03.441Z,52.30
2022-09-23T21:48:46.763Z,52.40
2022-09-23T21:52:28.455Z,52.50
2022-09-23T21:56:15.788Z,52.60
2022-09-23T22:00:01.812Z,52.60
2022-09-23T22:03:48.517Z,52.60
2022-09-23T22:07:30.256Z,52.60
2022-09-23T22:11:32.909Z,52.70
2022-09-23T22:15:14.751Z,52.80
2022-09-23T22:18:58.350Z,52.90
2022-09-23T22:22:40.066Z,53.00
2022-09-23T22:26:21.752Z,53.20
2022-09-23T22:30:21.974Z,53.30
2022-09-23T22:34:03.762Z,53.30
2022-09-23T22:37:45.914Z,53.50
2022-09-23T22:41:27.607Z,53.60
2022-09-23T22:45:10.799Z,53.70
2022-09-23T22:48:53.405Z,53.90
2022-09-23T22:52:35.762Z,54.00
2022-09-23T22:56:17.899Z,54.00
2022-09-23T22:59:59.648Z,54.10
2022-09-23T23:03:41.727Z,54.40
2022-09-23T23:07:24.676Z,54.80
2022-09-23T23:11:11.442Z,55.10
2022-09-23T23:14:53.204Z,55.50
2022-09-23T23:18:38.942Z,55.70
2022-09-23T23:22:20.655Z,56.00
2022-09-23T23:26:11.901Z,56.20
2022-09-23T23:29:54.082Z,57.20
2022-09-23T23:33:36.114Z,56.60
2022-09-23T23:37:20.879Z,56.70
2022-09-23T23:41:03.967Z,56.70
2022-09-23T23:44:45.812Z,56.80
2022-09-23T23:48:30.607Z,56.90
2022-09-23T23:52:12.365Z,57.00
2022-09-23T23:55:54.062Z,56.90
2022-09-23T23:59:35.792Z,56.90
